createdAt,value
2019-01-20T00:00:16.519Z,29.17
2019-01-20T00:02:45.024Z,27.80
2019-01-20T00:05:14.691Z,27.30
2019-01-20T00:07:43.125Z,29.67
2019-01-20T00:10:13.113Z,29.33
2019-01-20T00:12:41.568Z,29.87
2019-01-20T00:15:13.314Z,30.43
2019-01-20T00:17:41.764Z,29.73
2019-01-20T00:20:10.337Z,30.57
2019-01-20T00:22:38.914Z,28.60
2019-01-20T00:25:09.395Z,29.60
2019-01-20T00:27:38.020Z,30.70
2019-01-20T00:30:15.519Z,31.40
2019-01-20T00:32:44.030Z,30.60
2019-01-20T00:35:12.560Z,28.37
2019-01-20T00:37:41.082Z,29.83
2019-01-20T00:40:12.648Z,29.30
2019-01-20T00:42:41.179Z,34.07
2019-01-20T00:45:15.270Z,30.20
2019-01-20T00:47:43.978Z,33.00
2019-01-20T00:50:14.751Z,33.35
2019-01-20T00:52:43.339Z,32.23
2019-01-20T00:55:14.709Z,33.20
2019-01-20T00:57:43.752Z,32.58
2019-01-20T01:00:22.657Z,33.73
2019-01-20T01:02:51.394Z,31.53
2019-01-20T01:05:20.669Z,30.50
2019-01-20T01:07:50.018Z,30.80
2019-01-20T01:10:18.839Z,30.60
2019-01-20T01:12:48.515Z,32.42
2019-01-20T01:15:17.058Z,33.90
2019-01-20T01:17:45.571Z,33.67
2019-01-20T01:20:16.653Z,32.13
2019-01-20T01:22:45.220Z,30.63
2019-01-20T01:25:15.380Z,30.27
2019-01-20T01:27:43.944Z,31.73
2019-01-20T01:30:15.465Z,31.33
2019-01-20T01:32:44.034Z,30.63
2019-01-20T01:35:15.937Z,31.60
2019-01-20T01:37:44.378Z,31.10
2019-01-20T01:40:15.185Z,31.43
2019-01-20T01:42:44.148Z,30.00
2019-01-20T01:45:17.781Z,33.60
2019-01-20T01:47:46.221Z,32.27
2019-01-20T01:50:15.928Z,30.53
2019-01-20T01:52:44.350Z,29.92
2019-01-20T01:55:13.686Z,32.73
2019-01-20T01:57:42.228Z,30.77
2019-01-20T02:00:16.394Z,28.67
2019-01-20T02:02:44.885Z,29.33
2019-01-20T02:05:13.577Z,26.90
2019-01-20T02:07:42.529Z,29.63
2019-01-20T02:10:16.359Z,28.60
2019-01-20T02:12:45.156Z,29.50
2019-01-20T02:15:16.352Z,27.45
2019-01-20T02:17:44.938Z,28.20
2019-01-20T02:27:38.040Z,29.57
2019-01-20T02:30:21.514Z,28.25
2019-01-20T02:32:50.001Z,27.80
2019-01-20T02:35:18.458Z,30.17
2019-01-20T02:37:46.922Z,30.65
2019-01-20T02:40:16.968Z,27.50
2019-01-20T02:42:45.528Z,28.57
2019-01-20T02:45:15.799Z,28.02
2019-01-20T02:47:44.265Z,29.77
2019-01-20T02:50:18.230Z,29.98
2019-01-20T02:52:46.752Z,28.55
2019-01-20T02:55:15.631Z,27.05
2019-01-20T02:57:44.626Z,28.30
2019-01-20T03:00:16.653Z,29.45
2019-01-20T03:02:45.244Z,30.55
2019-01-20T03:05:14.109Z,28.47
2019-01-20T03:07:42.561Z,28.23
2019-01-20T03:10:12.726Z,27.93
2019-01-20T03:12:41.254Z,27.95
2019-01-20T03:15:12.015Z,26.47
2019-01-20T03:17:40.542Z,26.12
2019-01-20T03:20:11.882Z,29.00
2019-01-20T03:22:40.482Z,28.35
2019-01-20T03:25:12.068Z,29.30
2019-01-20T03:27:40.604Z,28.35
2019-01-20T03:30:11.890Z,27.63
2019-01-20T03:32:40.363Z,27.50
2019-01-20T03:35:10.247Z,26.70
2019-01-20T03:37:38.726Z,26.77
2019-01-20T03:40:15.535Z,31.13
2019-01-20T03:42:44.166Z,29.50
2019-01-20T03:45:15.263Z,27.30
2019-01-20T03:47:44.124Z,29.27
2019-01-20T03:50:14.513Z,30.55
2019-01-20T03:52:43.073Z,28.57
2019-01-20T03:55:13.970Z,30.15
2019-01-20T03:57:42.545Z,27.82
2019-01-20T04:00:14.338Z,28.73
2019-01-20T04:02:43.134Z,26.67
2019-01-20T04:05:12.026Z,27.80
2019-01-20T04:07:40.446Z,28.93
2019-01-20T04:10:11.841Z,26.80
2019-01-20T04:12:40.278Z,28.25
2019-01-20T04:15:10.078Z,26.52
2019-01-20T04:17:38.493Z,29.80
2019-01-20T04:20:08.689Z,27.80
2019-01-20T04:22:37.117Z,29.30
2019-01-20T04:25:08.788Z,27.70
2019-01-20T04:27:37.217Z,26.73
2019-01-20T04:30:08.209Z,28.77
2019-01-20T04:32:36.653Z,28.47
2019-01-20T04:35:06.964Z,29.18
2019-01-20T04:37:35.396Z,26.93
2019-01-20T04:40:05.869Z,26.63
2019-01-20T04:42:34.341Z,30.10
2019-01-20T04:45:03.243Z,28.32
2019-01-20T04:47:31.739Z,25.97
2019-01-20T04:50:00.184Z,27.67
2019-01-20T04:52:28.617Z,27.17
2019-01-20T04:54:57.069Z,26.77
2019-01-20T04:57:26.093Z,29.07
2019-01-20T04:59:54.531Z,28.63
2019-01-20T05:02:23.044Z,28.25
2019-01-20T05:04:51.466Z,27.83
2019-01-20T05:07:19.900Z,28.53
2019-01-20T05:09:48.525Z,26.90
2019-01-20T05:12:16.962Z,26.70
2019-01-20T05:14:45.394Z,31.23
2019-01-20T05:17:13.845Z,27.27
2019-01-20T05:19:42.252Z,29.23
2019-01-20T05:22:10.719Z,28.30
2019-01-20T05:24:39.141Z,27.35
2019-01-20T05:27:07.605Z,29.30
2019-01-20T05:29:36.053Z,28.77
2019-01-20T05:32:04.588Z,26.15
2019-01-20T05:34:33.054Z,27.20
2019-01-20T05:37:01.516Z,27.70
2019-01-20T05:39:29.937Z,25.13
2019-01-20T05:41:58.366Z,23.80
2019-01-20T05:44:26.813Z,26.57
2019-01-20T05:46:55.250Z,27.73
2019-01-20T05:49:23.768Z,28.83
2019-01-20T05:51:52.206Z,25.23
2019-01-20T05:54:20.800Z,27.00
2019-01-20T05:56:49.258Z,25.55
2019-01-20T05:59:17.802Z,26.80
2019-01-20T06:01:46.236Z,27.90
2019-01-20T06:04:14.669Z,26.70
2019-01-20T06:06:43.111Z,25.92
2019-01-20T06:09:11.620Z,27.58
2019-01-20T06:11:40.126Z,27.13
2019-01-20T06:16:36.273Z,27.37
2019-01-20T06:19:04.730Z,24.43
2019-01-20T06:21:33.144Z,27.83
2019-01-20T06:24:01.605Z,25.80
2019-01-20T06:26:30.037Z,27.27
2019-01-20T06:28:58.492Z,26.57
2019-01-20T06:31:26.927Z,27.50
2019-01-20T06:33:55.362Z,25.33
2019-01-20T06:36:23.782Z,27.83
